createdAt,value
2023-05-09T00:01:59.574Z,99214.34
2023-05-09T00:04:28.169Z,99223.22
2023-05-09T00:06:56.716Z,99228.03
2023-05-09T00:09:25.143Z,99246.66
2023-05-09T00:11:53.524Z,99251.75
2023-05-09T00:14:21.995Z,99247.63
2023-05-09T00:16:50.556Z,99246.34
2023-05-09T00:19:19.014Z,99240.19
2023-05-09T00:21:50.481Z,99256.78
2023-05-09T00:24:18.965Z,99248.06
2023-05-09T00:26:47.449Z,99251.09
2023-05-09T00:29:15.846Z,99251.53
2023-05-09T00:31:44.264Z,99255.56
2023-05-09T00:34:12.673Z,99253.19
2023-05-09T00:36:41.054Z,99256.69
2023-05-09T00:39:09.901Z,99255.06
2023-05-09T00:41:38.286Z,99254.78
2023-05-09T00:44:06.984Z,99266.50
2023-05-09T00:46:35.583Z,99257.75
2023-05-09T00:49:04.451Z,99261.53
2023-05-09T00:51:33.778Z,99250.19
2023-05-09T00:54:02.315Z,99253.44
2023-05-09T00:56:30.752Z,99257.69
2023-05-09T00:58:59.327Z,99258.94
2023-05-09T01:01:28.105Z,99262.72
2023-05-09T01:03:57.123Z,99261.88
2023-05-09T01:06:42.220Z,99270.44
2023-05-09T01:09:22.954Z,99262.44
2023-05-09T01:12:42.489Z,99263.66
2023-05-09T01:15:33.222Z,99256.38
2023-05-09T01:18:10.085Z,99252.72
2023-05-09T01:20:47.001Z,99254.66
2023-05-09T01:23:43.337Z,99266.91
2023-05-09T01:26:25.082Z,99261.50
2023-05-09T01:29:22.297Z,99255.84
2023-05-09T01:31:52.283Z,99262.16
2023-05-09T01:34:24.006Z,99261.09
2023-05-09T01:36:56.402Z,99258.19
2023-05-09T01:39:26.751Z,99261.09
2023-05-09T01:41:58.224Z,99258.16
2023-05-09T01:44:28.517Z,99258.09
2023-05-09T01:46:57.634Z,99260.78
2023-05-09T01:49:27.605Z,99247.97
2023-05-09T01:51:57.747Z,99250.81
2023-05-09T01:54:27.359Z,99245.38
2023-05-09T01:56:56.877Z,99245.25
2023-05-09T01:59:27.229Z,99241.75
2023-05-09T02:01:57.599Z,99243.94
2023-05-09T02:04:27.151Z,99246.31
2023-05-09T02:06:57.255Z,99239.81
2023-05-09T02:09:26.059Z,99246.50
2023-05-09T02:11:55.701Z,99238.13
2023-05-09T02:14:24.182Z,99241.25
2023-05-09T02:16:52.746Z,99237.72
2023-05-09T02:19:21.524Z,99237.28
2023-05-09T02:21:50.190Z,99233.22
2023-05-09T02:24:18.629Z,99228.41
2023-05-09T02:26:48.605Z,99228.06
2023-05-09T02:29:20.807Z,99225.69
2023-05-09T02:31:52.332Z,99228.00
2023-05-09T02:34:21.917Z,99229.38
2023-05-09T02:36:50.735Z,99224.34
2023-05-09T02:39:19.518Z,99220.06
2023-05-09T02:41:51.364Z,99222.75
2023-05-09T02:44:19.759Z,99225.63
2023-05-09T02:46:48.180Z,99219.84
2023-05-09T02:49:30.881Z,99217.84
2023-05-09T02:52:00.307Z,99220.31
2023-05-09T02:54:28.991Z,99212.41
2023-05-09T02:56:57.593Z,99213.00
2023-05-09T02:59:27.192Z,99207.94
2023-05-09T03:01:55.800Z,99203.66
2023-05-09T03:04:24.206Z,99201.22
2023-05-09T03:06:53.113Z,99187.47
2023-05-09T03:09:21.478Z,99182.97
2023-05-09T03:11:49.898Z,99175.09
2023-05-09T03:14:18.309Z,99177.22
2023-05-09T03:16:46.651Z,99175.72
2023-05-09T03:19:15.375Z,99169.31
2023-05-09T03:21:43.947Z,99164.22
2023-05-09T03:24:12.714Z,99160.44
2023-05-09T03:26:41.456Z,99159.53
2023-05-09T03:29:09.828Z,99154.25
2023-05-09T03:31:38.380Z,99155.03
2023-05-09T03:34:06.890Z,99152.22
2023-05-09T03:40:16.161Z,99140.91
2023-05-09T03:42:44.567Z,99139.22
2023-05-09T03:45:13.483Z,99136.94
2023-05-09T03:47:42.135Z,99132.59
2023-05-09T03:50:11.085Z,99131.84
2023-05-09T03:52:39.604Z,99128.41
2023-05-09T03:55:08.667Z,99118.59
2023-05-09T03:57:37.546Z,99112.34
2023-05-09T04:00:07.739Z,99105.34
2023-05-09T04:02:36.533Z,99101.72
2023-05-09T04:05:05.271Z,99097.38
2023-05-09T04:07:33.691Z,99099.22
2023-05-09T04:10:02.102Z,99095.59
2023-05-09T04:12:30.514Z,99088.75
2023-05-09T04:14:58.928Z,99084.59
2023-05-09T04:17:27.436Z,99091.91
2023-05-09T04:19:55.860Z,99079.16
2023-05-09T04:22:24.297Z,99081.97
2023-05-09T04:24:52.820Z,99087.59
2023-05-09T04:27:21.545Z,99075.28
2023-05-09T04:29:50.305Z,99079.78
2023-05-09T04:32:18.763Z,99074.38
2023-05-09T04:34:47.357Z,99070.13
2023-05-09T04:37:15.832Z,99073.09
2023-05-09T04:39:44.428Z,99068.69
2023-05-09T04:42:12.780Z,99062.53
2023-05-09T04:44:41.156Z,99060.97
2023-05-09T04:47:09.574Z,99060.56
2023-05-09T04:49:38.026Z,99065.56
2023-05-09T04:52:06.466Z,99070.00
2023-05-09T04:54:34.856Z,99067.84
2023-05-09T04:57:16.512Z,99062.69
2023-05-09T04:59:46.084Z,99058.56
2023-05-09T05:02:14.532Z,99058.34
2023-05-09T05:04:42.982Z,99054.91
2023-05-09T05:07:11.455Z,99053.28
2023-05-09T05:09:39.826Z,99045.56
2023-05-09T05:12:09.989Z,99047.00
2023-05-09T05:14:38.567Z,99049.91
2023-05-09T05:17:06.980Z,99039.00
2023-05-09T05:19:35.667Z,99042.50
2023-05-09T05:22:04.209Z,99026.66
2023-05-09T05:24:32.616Z,99026.22
2023-05-09T05:27:01.020Z,99017.41
2023-05-09T05:29:29.480Z,99016.22
2023-05-09T05:31:58.028Z,99009.91
2023-05-09T05:34:26.577Z,99001.84
2023-05-09T05:36:54.965Z,98993.81
2023-05-09T05:39:23.469Z,98990.69
2023-05-09T05:41:53.012Z,98987.38
2023-05-09T05:44:21.436Z,98970.59
2023-05-09T05:46:49.825Z,98969.56
2023-05-09T05:49:18.239Z,98970.00
2023-05-09T05:51:46.630Z,98965.09
2023-05-09T05:54:15.017Z,98954.88
2023-05-09T05:56:43.450Z,98952.53
2023-05-09T05:59:13.441Z,98944.59
2023-05-09T06:01:42.197Z,98942.78
2023-05-09T06:04:10.700Z,98936.91
2023-05-09T06:06:39.269Z,98943.22
2023-05-09T06:09:07.701Z,98936.47
2023-05-09T06:11:36.188Z,98936.03
2023-05-09T06:14:04.693Z,98924.28
2023-05-09T06:16:33.218Z,98927.75
2023-05-09T06:19:01.640Z,98919.47
2023-05-09T06:21:30.052Z,98911.06
2023-05-09T06:24:08.332Z,98912.88
2023-05-09T06:26:40.794Z,98910.31
2023-05-09T06:29:09.241Z,98902.03
2023-05-09T06:31:39.543Z,98907.00
2023-05-09T06:34:08.065Z,98901.88
2023-05-09T06:36:36.787Z,98894.22
2023-05-09T06:39:05.341Z,98882.94
2023-05-09T06:41:33.791Z,98880.50
2023-05-09T06:44:03.601Z,98885.91
2023-05-09T06:46:32.026Z,98880.50
2023-05-09T06:49:02.732Z,98876.16
2023-05-09T06:51:32.078Z,98866.22
2023-05-09T06:54:00.497Z,98849.69
2023-05-09T06:56:28.990Z,98849.22
2023-05-09T06:58:57.487Z,98845.78
2023-05-09T07:01:26.022Z,98837.34
2023-05-09T07:03:54.499Z,98828.94
2023-05-09T07:06:22.866Z,98824.13
2023-05-09T07:08:51.606Z,98831.31
2023-05-09T07:11:20.087Z,98819.16
2023-05-09T07:13:48.516Z,98817.66
2023-05-09T07:16:18.926Z,98813.31
2023-05-09T07:18:47.360Z,98796.50
2023-05-09T07:21:16.452Z,98797.41
2023-05-09T07:23:44.869Z,98789.50
2023-05-09T07:26:13.287Z,98789.09
2023-05-09T07:28:41.719Z,98786.56
2023-05-09T07:31:10.651Z,98781.16
2023-05-09T07:33:39.162Z,98780.75
2023-05-09T07:36:07.784Z,98766.94
2023-05-09T07:38:36.898Z,98766.19
2023-05-09T07:41:05.394Z,98772.50
2023-05-09T07:43:34.021Z,98762.59
2023-05-09T07:46:03.015Z,98755.50
2023-05-09T07:48:31.519Z,98749.06
2023-05-09T07:50:59.982Z,98744.09
2023-05-09T07:53:28.421Z,98740.22
2023-05-09T07:55:56.817Z,98732.13
2023-05-09T07:58:25.231Z,98727.66
2023-05-09T08:00:53.640Z,98719.41
2023-05-09T08:03:22.334Z,98720.00
2023-05-09T08:05:50.887Z,98708.31
2023-05-09T08:08:19.269Z,98711.63
2023-05-09T08:10:47.681Z,98704.03
2023-05-09T08:13:16.194Z,98699.38
2023-05-09T08:15:44.745Z,98698.19
2023-05-09T08:18:13.298Z,98692.66
2023-05-09T08:20:42.225Z,98689.22
2023-05-09T08:23:10.940Z,98685.78
2023-05-09T08:25:39.382Z,98704.53
2023-05-09T08:28:07.830Z,98699.16
2023-05-09T08:30:36.333Z,98705.19
2023-05-09T08:33:04.777Z,98710.44
2023-05-09T08:35:33.195Z,98702.91
2023-05-09T08:38:01.627Z,98700.50
2023-05-09T08:40:30.037Z,98694.66
2023-05-09T08:42:58.605Z,98684.63
2023-05-09T08:45:30.578Z,98680.28
2023-05-09T08:48:00.284Z,98672.47
2023-05-09T08:50:29.205Z,98673.09
2023-05-09T08:52:58.075Z,98676.38
2023-05-09T08:55:28.333Z,98676.09
2023-05-09T08:57:56.912Z,98675.81
2023-05-09T09:00:27.748Z,98663.81
2023-05-09T09:02:58.471Z,98675.34
2023-05-09T09:05:40.600Z,98668.16
2023-05-09T09:08:11.236Z,98661.69
2023-05-09T09:10:48.127Z,98651.78
2023-05-09T09:13:19.006Z,98655.69
2023-05-09T09:15:49.339Z,98658.19
2023-05-09T09:18:24.722Z,98663.69
2023-05-09T09:20:58.786Z,98666.91
2023-05-09T09:23:28.249Z,98677.38
2023-05-09T09:26:01.480Z,98680.75
2023-05-09T09:28:30.488Z,98679.19
2023-05-09T09:30:58.929Z,98667.59
2023-05-09T09:33:30.184Z,98669.03
2023-05-09T09:35:58.795Z,98668.41
2023-05-09T09:38:27.784Z,98664.34
2023-05-09T09:40:57.105Z,98650.97
2023-05-09T09:43:33.111Z,98649.16
2023-05-09T09:46:06.040Z,98651.81
2023-05-09T09:48:36.446Z,98653.56
2023-05-09T09:51:12.280Z,98648.16
2023-05-09T09:53:42.501Z,98652.19
2023-05-09T09:56:11.587Z,98663.19
2023-05-09T09:58:40.256Z,98674.97
2023-05-09T10:01:18.614Z,98673.13
2023-05-09T10:03:48.416Z,98680.72
2023-05-09T10:06:17.918Z,98681.16
2023-05-09T10:08:50.159Z,98687.25
2023-05-09T10:11:18.564Z,98677.66
2023-05-09T10:13:47.682Z,98682.38
2023-05-09T10:16:17.070Z,98678.63
2023-05-09T10:18:46.897Z,98683.41
2023-05-09T10:21:17.341Z,98687.00
2023-05-09T10:23:49.841Z,98688.91
2023-05-09T10:26:33.828Z,98682.47
2023-05-09T10:29:08.366Z,98680.19
2023-05-09T10:31:40.712Z,98683.63
2023-05-09T10:34:13.320Z,98691.06
2023-05-09T10:36:42.015Z,98692.97
2023-05-09T10:39:10.806Z,98693.97
2023-05-09T10:41:40.980Z,98685.88
2023-05-09T10:44:09.513Z,98692.53
2023-05-09T10:46:38.724Z,98702.19
2023-05-09T10:49:07.716Z,98699.78
2023-05-09T10:51:36.327Z,98710.94
2023-05-09T10:54:16.389Z,98717.03
2023-05-09T10:56:44.882Z,98721.63
2023-05-09T10:59:38.398Z,98725.63
2023-05-09T11:02:07.708Z,98731.13
2023-05-09T11:04:36.161Z,98725.06
2023-05-09T11:07:04.596Z,98718.28
2023-05-09T11:09:42.278Z,98721.53
2023-05-09T11:12:13.868Z,98733.44
2023-05-09T11:14:44.051Z,98738.00
2023-05-09T11:17:29.051Z,98747.69
2023-05-09T11:20:04.363Z,98747.31
2023-05-09T11:22:44.390Z,98744.13
2023-05-09T11:25:15.050Z,98744.53
2023-05-09T11:27:46.559Z,98758.53
2023-05-09T11:30:17.673Z,98759.69
2023-05-09T11:32:56.708Z,98765.00
2023-05-09T11:35:27.792Z,98770.31
2023-05-09T11:38:07.785Z,98776.94
2023-05-09T11:40:36.820Z,98784.88
2023-05-09T11:43:05.258Z,98785.09
2023-05-09T11:45:35.164Z,98798.88
2023-05-09T11:48:10.739Z,98799.69
2023-05-09T11:50:39.388Z,98797.06
2023-05-09T11:53:09.775Z,98800.84
2023-05-09T11:55:39.460Z,98815.94
2023-05-09T11:58:10.040Z,98830.50
2023-05-09T12:00:48.364Z,98835.63
2023-05-09T12:03:17.061Z,98848.66
2023-05-09T12:05:45.669Z,98843.94
2023-05-09T12:08:16.450Z,98850.72
2023-05-09T12:10:44.855Z,98862.22
2023-05-09T12:13:13.559Z,98849.03
2023-05-09T12:15:44.615Z,98854.50
2023-05-09T12:18:13.246Z,98854.31
2023-05-09T12:20:47.062Z,98859.03
2023-05-09T12:23:16.894Z,98879.22
2023-05-09T12:25:55.795Z,98883.19
2023-05-09T12:28:28.619Z,98889.41
2023-05-09T12:30:57.691Z,98900.50
2023-05-09T12:33:27.059Z,98903.91
2023-05-09T12:36:14.756Z,98917.28
2023-05-09T12:38:54.773Z,98918.44
2023-05-09T12:43:57.139Z,98947.66
2023-05-09T12:46:26.025Z,98960.09
2023-05-09T12:48:55.198Z,98965.56
2023-05-09T12:51:24.046Z,98981.78
2023-05-09T12:53:53.485Z,98979.72
2023-05-09T12:56:25.505Z,98981.78
2023-05-09T12:58:55.791Z,98990.66
2023-05-09T13:01:29.558Z,98998.00
2023-05-09T13:04:07.317Z,98995.75
2023-05-09T13:06:37.038Z,98992.34
2023-05-09T13:09:10.321Z,98998.38
2023-05-09T13:11:38.895Z,99007.63
2023-05-09T13:14:07.500Z,99015.16
2023-05-09T13:16:36.175Z,99032.25
2023-05-09T13:19:06.408Z,99027.31
2023-05-09T13:21:36.162Z,99033.72
2023-05-09T13:24:06.053Z,99045.00
2023-05-09T13:26:34.983Z,99061.88
2023-05-09T13:29:03.473Z,99079.22
2023-05-09T13:31:34.112Z,99089.56
2023-05-09T13:34:02.582Z,99116.69
2023-05-09T13:36:31.077Z,99127.03
2023-05-09T13:38:59.484Z,99150.94
2023-05-09T13:41:27.995Z,99160.88
2023-05-09T13:43:56.400Z,99180.28
2023-05-09T13:46:24.872Z,99191.66
2023-05-09T13:48:53.656Z,99194.69
2023-05-09T13:51:22.913Z,99182.53
2023-05-09T13:53:51.361Z,99179.06
2023-05-09T13:56:20.513Z,99168.94
2023-05-09T13:58:48.906Z,99176.69
2023-05-09T14:01:17.355Z,99179.06
2023-05-09T14:03:45.957Z,99190.59
2023-05-09T14:06:15.450Z,99178.78
2023-05-09T14:08:44.337Z,99187.09
2023-05-09T14:11:12.948Z,99190.03
2023-05-09T14:13:41.339Z,99214.66
2023-05-09T14:16:09.936Z,99224.72
2023-05-09T14:18:38.409Z,99239.06
2023-05-09T14:21:07.989Z,99230.47
2023-05-09T14:23:36.521Z,99222.59
2023-05-09T14:26:05.053Z,99231.09
2023-05-09T14:28:33.704Z,99232.41
2023-05-09T14:31:02.412Z,99255.66
2023-05-09T14:33:30.893Z,99262.09
2023-05-09T14:35:59.329Z,99268.25
2023-05-09T14:38:27.851Z,99275.97
2023-05-09T14:40:57.254Z,99283.09
2023-05-09T14:43:25.717Z,99306.09
2023-05-09T14:45:54.200Z,99320.63
2023-05-09T14:48:23.738Z,99328.81
2023-05-09T14:50:57.164Z,99325.25
2023-05-09T14:53:25.960Z,99325.25
2023-05-09T14:55:54.441Z,99329.31
2023-05-09T14:58:23.963Z,99325.75
2023-05-09T15:00:53.860Z,99320.16
2023-05-09T15:03:22.696Z,99313.25
2023-05-09T15:05:52.780Z,99305.63
2023-05-09T15:08:21.448Z,99313.28
2023-05-09T15:10:51.742Z,99321.47
2023-05-09T15:13:20.326Z,99315.84
2023-05-09T15:15:48.827Z,99312.53
2023-05-09T15:18:19.346Z,99306.41
2023-05-09T15:20:47.832Z,99307.41
2023-05-09T15:23:16.328Z,99321.69
2023-05-09T15:25:45.476Z,99335.19
2023-05-09T15:28:14.115Z,99339.53
2023-05-09T15:30:42.616Z,99323.44
2023-05-09T15:33:11.805Z,99290.03
2023-05-09T15:35:40.841Z,99258.66
2023-05-09T15:38:13.011Z,99233.16
2023-05-09T15:40:42.374Z,99222.41
2023-05-09T15:43:10.811Z,99218.09
2023-05-09T15:45:44.603Z,99208.91
2023-05-09T15:48:14.109Z,99192.84
2023-05-09T15:50:44.143Z,99171.91
2023-05-09T15:53:14.077Z,99155.84
2023-05-09T15:55:43.725Z,99162.25
2023-05-09T15:58:12.195Z,99147.94
2023-05-09T16:00:40.826Z,99141.03
2023-05-09T16:03:09.816Z,99138.25
2023-05-09T16:05:41.724Z,99127.78
2023-05-09T16:08:10.565Z,99127.00
2023-05-09T16:10:38.987Z,99126.78
2023-05-09T16:13:08.300Z,99126.03
2023-05-09T16:15:37.050Z,99134.44
2023-05-09T16:18:05.608Z,99135.19
2023-05-09T16:20:34.137Z,99137.75
2023-05-09T16:23:02.540Z,99136.47
2023-05-09T16:25:32.238Z,99137.00
2023-05-09T16:28:01.897Z,99146.94
2023-05-09T16:30:30.500Z,99144.13
2023-05-09T16:32:58.967Z,99149.00
2023-05-09T16:35:27.483Z,99170.16
2023-05-09T16:37:55.881Z,99204.59
2023-05-09T16:40:24.460Z,99259.66
2023-05-09T16:42:54.622Z,99262.75
2023-05-09T16:45:23.330Z,99251.03
2023-05-09T16:47:52.124Z,99278.09
2023-05-09T16:50:20.540Z,99297.25
2023-05-09T16:52:49.743Z,99299.56
2023-05-09T16:55:18.374Z,99294.97
2023-05-09T16:57:46.763Z,99315.63
2023-05-09T17:00:15.671Z,99306.22
2023-05-09T17:02:44.301Z,99296.03
2023-05-09T17:05:12.845Z,99279.72
2023-05-09T17:07:41.239Z,99285.09
2023-05-09T17:10:10.020Z,99283.56
2023-05-09T17:12:40.545Z,99283.31
2023-05-09T17:15:09.893Z,99264.97
2023-05-09T17:17:38.881Z,99262.69
2023-05-09T17:20:08.090Z,99269.31
2023-05-09T17:22:37.192Z,99255.81
2023-05-09T17:25:06.656Z,99251.50
2023-05-09T17:27:35.130Z,99236.44
2023-05-09T17:30:04.748Z,99243.84
2023-05-09T17:32:33.309Z,99239.50
2023-05-09T17:35:01.753Z,99234.66
2023-05-09T17:37:30.165Z,99224.72
2023-05-09T17:39:59.047Z,99216.31
2023-05-09T17:42:27.519Z,99212.00
2023-05-09T17:44:56.008Z,99207.16
2023-05-09T17:47:25.142Z,99193.63
2023-05-09T17:49:53.585Z,99185.22
2023-05-09T17:52:22.667Z,99188.03
2023-05-09T17:54:51.081Z,99189.56
2023-05-09T17:57:19.513Z,99180.38
2023-05-09T17:59:48.426Z,99174.78
2023-05-09T18:02:17.758Z,99165.09
2023-05-09T18:04:47.305Z,99162.81
2023-05-09T18:07:16.030Z,99158.72
2023-05-09T18:09:44.490Z,99156.44
2023-05-09T18:12:13.307Z,99156.94
2023-05-09T18:14:41.793Z,99149.31
2023-05-09T18:17:10.263Z,99136.56
2023-05-09T18:19:40.688Z,99133.75
2023-05-09T18:22:09.172Z,99138.09
2023-05-09T18:24:37.897Z,99131.72
2023-05-09T18:27:06.263Z,99125.59
2023-05-09T18:29:34.644Z,99118.19
2023-05-09T18:32:03.132Z,99110.00
2023-05-09T18:34:31.658Z,99105.16
2023-05-09T18:37:00.034Z,99105.16
2023-05-09T18:39:28.557Z,99093.94
2023-05-09T18:41:56.969Z,99080.69
2023-05-09T18:44:25.438Z,99078.41
2023-05-09T18:46:54.858Z,99063.09
2023-05-09T18:49:25.799Z,99053.94
2023-05-09T18:51:54.462Z,99044.75
2023-05-09T18:54:22.867Z,99051.13
2023-05-09T18:56:51.315Z,99053.16
2023-05-09T18:59:19.720Z,99051.13
2023-05-09T19:01:48.125Z,99051.13
2023-05-09T19:04:18.294Z,99052.41
2023-05-09T19:06:47.585Z,99049.59
2023-05-09T19:09:16.084Z,99045.28
2023-05-09T19:11:44.960Z,99037.41
2023-05-09T19:14:13.368Z,99037.91
2023-05-09T19:16:43.513Z,99038.97
2023-05-09T19:19:11.942Z,99033.13
2023-05-09T19:21:40.560Z,99032.13
2023-05-09T19:24:10.105Z,99032.63
2023-05-09T19:26:38.520Z,99025.00
2023-05-09T19:29:09.069Z,99018.41
2023-05-09T19:31:38.684Z,99022.47
2023-05-09T19:34:07.285Z,99018.66
2023-05-09T19:36:35.838Z,99024.00
2023-05-09T19:39:06.140Z,99018.16
2023-05-09T19:41:34.569Z,99018.69
2023-05-09T19:44:03.218Z,99020.50
2023-05-09T19:46:31.683Z,99016.16
2023-05-09T19:49:00.140Z,99023.06
2023-05-09T19:51:28.680Z,99031.47
2023-05-09T19:53:57.120Z,99044.19
2023-05-09T19:56:25.569Z,99032.22
2023-05-09T19:58:54.159Z,99042.91
2023-05-09T20:01:22.671Z,99040.88
2023-05-09T20:03:54.059Z,99040.88
2023-05-09T20:06:22.616Z,99041.63
2023-05-09T20:08:53.031Z,99028.91
2023-05-09T20:11:22.601Z,99029.41
2023-05-09T20:13:51.009Z,99030.47
2023-05-09T20:16:21.001Z,99025.38
2023-05-09T20:18:51.969Z,99029.47
2023-05-09T20:21:20.521Z,99034.81
2023-05-09T20:23:48.982Z,99028.47
2023-05-09T20:26:17.389Z,99038.16
2023-05-09T20:28:46.018Z,99040.44
2023-05-09T20:31:14.463Z,99046.03
2023-05-09T20:33:42.942Z,99046.03
2023-05-09T20:36:12.144Z,99042.47
2023-05-09T20:38:40.519Z,99034.06
2023-05-09T20:41:08.898Z,99034.06
2023-05-09T20:43:37.365Z,99033.53
2023-05-09T20:46:05.821Z,99028.94
2023-05-09T20:48:34.325Z,99029.19
2023-05-09T20:51:02.707Z,99032.22
2023-05-09T20:53:33.336Z,99028.13
2023-05-09T20:56:02.258Z,99026.84
2023-05-09T20:58:34.719Z,99017.16
2023-05-09T21:01:03.244Z,99017.94
2023-05-09T21:03:31.758Z,99010.28
2023-05-09T21:06:00.401Z,99019.97
2023-05-09T21:08:28.907Z,99026.34
2023-05-09T21:10:57.323Z,99017.16
2023-05-09T21:13:25.762Z,99021.25
2023-05-09T21:15:54.192Z,99024.31
2023-05-09T21:18:22.627Z,99024.81
2023-05-09T21:20:51.695Z,99025.34
2023-05-09T21:23:20.079Z,99023.28
2023-05-09T21:25:48.590Z,99029.41
2023-05-09T21:28:18.323Z,99043.44
2023-05-09T21:30:53.120Z,99050.56
2023-05-09T21:33:22.190Z,99054.66
2023-05-09T21:35:50.544Z,99053.59
2023-05-09T21:38:18.957Z,99053.59
2023-05-09T21:40:47.393Z,99059.97
2023-05-09T21:43:19.248Z,99046.97
2023-05-09T21:45:47.743Z,99048.47
2023-05-09T21:48:16.315Z,99059.16
2023-05-09T21:50:47.870Z,99059.94
2023-05-09T21:53:16.277Z,99070.63
2023-05-09T21:55:44.690Z,99073.19
2023-05-09T21:58:13.057Z,99088.72
2023-05-09T22:00:41.523Z,99085.91
2023-05-09T22:03:09.988Z,99095.34
2023-05-09T22:05:38.614Z,99091.28
2023-05-09T22:08:07.078Z,99097.88
2023-05-09T22:10:35.479Z,99107.84
2023-05-09T22:13:03.916Z,99110.88
2023-05-09T22:15:32.315Z,99120.06
2023-05-09T22:18:00.795Z,99120.06
2023-05-09T22:20:29.466Z,99117.25
2023-05-09T22:22:57.846Z,99120.31
2023-05-09T22:25:26.677Z,99121.81
2023-05-09T22:27:56.243Z,99132.50
2023-05-09T22:30:25.143Z,99144.50
2023-05-09T22:32:53.621Z,99147.28
2023-05-09T22:35:22.007Z,99150.84
2023-05-09T22:37:50.404Z,99154.44
2023-05-09T22:40:18.965Z,99150.09
2023-05-09T22:42:47.975Z,99162.59
2023-05-09T22:45:16.450Z,99166.91
2023-05-09T22:47:45.454Z,99164.13
2023-05-09T22:50:14.635Z,99154.94
2023-05-09T22:52:43.224Z,99150.63
2023-05-09T22:55:12.359Z,99153.41
2023-05-09T22:57:41.596Z,99156.22
2023-05-09T23:00:10.649Z,99152.66
2023-05-09T23:02:39.160Z,99167.44
2023-05-09T23:05:09.737Z,99159.78
2023-05-09T23:07:38.522Z,99166.69
2023-05-09T23:10:07.133Z,99168.97
2023-05-09T23:12:35.531Z,99162.06
2023-05-09T23:15:03.931Z,99166.63
2023-05-09T23:17:32.730Z,99163.31
2023-05-09T23:20:01.891Z,99167.13
2023-05-09T23:22:30.329Z,99163.81
2023-05-09T23:25:00.634Z,99161.00
2023-05-09T23:27:29.533Z,99161.75
2023-05-09T23:29:57.916Z,99177.31
2023-05-09T23:32:26.383Z,99169.13
2023-05-09T23:34:54.813Z,99188.28
2023-05-09T23:37:23.229Z,99178.56
2023-05-09T23:39:51.632Z,99189.53
2023-05-09T23:42:20.186Z,99196.66
2023-05-09T23:44:48.561Z,99195.63
2023-05-09T23:47:17.166Z,99192.53
2023-05-09T23:49:45.596Z,99190.72
2023-05-09T23:52:14.018Z,99190.44
2023-05-09T23:54:42.618Z,99198.59
2023-05-09T23:57:11.026Z,99204.44
2023-05-09T23:59:39.457Z,99209.00
